createdAt,value
2019-02-28T00:00:13.790Z,98097.63
2019-02-28T00:02:45.818Z,98090.85
2019-02-28T00:05:17.822Z,98088.42
2019-02-28T00:07:50.544Z,98089.12
2019-02-28T00:10:22.529Z,98087.66
2019-02-28T00:12:54.420Z,98082.37
2019-02-28T00:15:29.688Z,98084.81
2019-02-28T00:17:59.988Z,98086.26
2019-02-28T00:20:32.640Z,98078.79
2019-02-28T00:23:04.690Z,98073.16
2019-02-28T00:25:38.084Z,98068.96
2019-02-28T00:28:10.311Z,98074.47
2019-02-28T00:30:42.255Z,98070.54
2019-02-28T00:33:14.193Z,98063.18
2019-02-28T00:35:46.123Z,98064.56
2019-02-28T00:38:18.056Z,98059.69
2019-02-28T00:40:49.994Z,98059.31
2019-02-28T00:43:22.338Z,98054.14
2019-02-28T00:45:55.585Z,98053.63
2019-02-28T00:48:27.476Z,98050.11
2019-02-28T00:50:59.422Z,98047.13
2019-02-28T00:53:31.352Z,98043.36
2019-02-28T00:56:03.287Z,98045.23
2019-02-28T00:58:35.222Z,98043.52
2019-02-28T01:01:08.465Z,98040.23
2019-02-28T01:03:41.053Z,98038.43
2019-02-28T01:06:13.001Z,98035.73
2019-02-28T01:08:44.935Z,98032.99
2019-02-28T01:11:17.253Z,98027.64
2019-02-28T01:13:49.231Z,98030.64
2019-02-28T01:16:21.171Z,98027.52
2019-02-28T01:18:53.105Z,98025.36
2019-02-28T01:21:25.032Z,98024.05
2019-02-28T01:23:56.973Z,98019.61
2019-02-28T01:26:30.519Z,98020.22
2019-02-28T01:29:02.766Z,98009.36
2019-02-28T01:31:34.758Z,98009.02
2019-02-28T01:34:06.895Z,98001.10
2019-02-28T01:36:38.839Z,97995.88
2019-02-28T01:39:11.174Z,97999.99
2019-02-28T01:41:45.172Z,97993.43
2019-02-28T01:44:16.757Z,97986.23
2019-02-28T01:46:49.306Z,97984.03
2019-02-28T01:49:21.300Z,97978.83
2019-02-28T01:51:53.234Z,97976.79
2019-02-28T01:54:27.784Z,97969.91
2019-02-28T01:56:59.052Z,97966.30
2019-02-28T01:59:30.999Z,97959.34
2019-02-28T02:02:06.687Z,97950.84
2019-02-28T02:04:36.665Z,97948.63
2019-02-28T02:07:09.036Z,97938.41
2019-02-28T02:09:42.727Z,97937.30
2019-02-28T02:12:14.691Z,97930.79
2019-02-28T02:14:46.732Z,97923.79
2019-02-28T02:17:18.773Z,97921.83
2019-02-28T02:19:52.208Z,97924.49
2019-02-28T02:22:24.372Z,97913.30
2019-02-28T02:24:59.332Z,97911.69
2019-02-28T02:27:30.039Z,97917.20
2019-02-28T02:30:01.976Z,97917.05
2019-02-28T02:32:38.739Z,97913.22
2019-02-28T02:35:08.497Z,97915.92
2019-02-28T02:37:40.554Z,97912.36
2019-02-28T02:40:13.053Z,97907.67
2019-02-28T02:42:48.928Z,97908.91
2019-02-28T02:45:18.853Z,97903.52
2019-02-28T02:47:51.030Z,97897.69
2019-02-28T02:50:22.994Z,97896.58
2019-02-28T02:52:54.970Z,97888.77
2019-02-28T02:55:28.926Z,97887.39
2019-02-28T02:58:00.531Z,97891.27
2019-02-28T03:00:32.448Z,97890.34
2019-02-28T03:03:05.995Z,97890.92
2019-02-28T03:05:38.117Z,97891.06
2019-02-28T03:08:10.140Z,97893.05
2019-02-28T03:10:42.078Z,97892.60
2019-02-28T03:13:14.015Z,97898.65
2019-02-28T03:15:45.954Z,97892.83
2019-02-28T03:18:20.486Z,97895.92
2019-02-28T03:20:51.559Z,97895.95
2019-02-28T03:23:24.579Z,97895.43
2019-02-28T03:25:56.530Z,97884.48
2019-02-28T03:28:32.162Z,97883.91
2019-02-28T03:31:11.693Z,97881.55
2019-02-28T03:33:35.740Z,97879.81
2019-02-28T03:36:07.676Z,97881.11
2019-02-28T03:38:39.614Z,97883.10
2019-02-28T03:41:16.085Z,97879.19
2019-02-28T03:43:45.200Z,97874.41
2019-02-28T03:46:17.148Z,97877.11
2019-02-28T03:48:49.091Z,97875.30
2019-02-28T03:51:21.026Z,97874.19
2019-02-28T03:53:55.946Z,97871.68
2019-02-28T03:56:28.430Z,97871.58
2019-02-28T03:59:00.458Z,97866.52
2019-02-28T04:01:32.415Z,97861.77
2019-02-28T04:04:10.838Z,97858.06
2019-02-28T04:06:40.993Z,97856.07
2019-02-28T04:09:13.039Z,97854.80
2019-02-28T04:11:44.948Z,97855.80
2019-02-28T04:14:16.993Z,97857.63
2019-02-28T04:16:52.700Z,97856.70
2019-02-28T04:19:23.148Z,97857.35
2019-02-28T04:21:55.113Z,97853.33
2019-02-28T04:24:27.045Z,97847.41
2019-02-28T04:27:06.499Z,97846.77
2019-02-28T04:29:32.617Z,97844.53
2019-02-28T04:32:04.792Z,97841.00
2019-02-28T04:34:36.719Z,97842.02
2019-02-28T04:37:09.756Z,97843.37
2019-02-28T04:39:41.755Z,97846.40
2019-02-28T04:42:13.682Z,97843.97
2019-02-28T04:44:45.614Z,97841.84
2019-02-28T04:47:17.551Z,97834.11
2019-02-28T04:49:49.504Z,97831.88
2019-02-28T04:52:21.412Z,97828.59
2019-02-28T04:54:53.450Z,97830.59
2019-02-28T04:57:25.384Z,97832.66
2019-02-28T04:59:57.305Z,97830.16
2019-02-28T05:02:29.236Z,97824.98
2019-02-28T05:05:01.171Z,97821.08
2019-02-28T05:07:33.108Z,97825.92
2019-02-28T05:10:05.415Z,97816.12
2019-02-28T05:12:39.985Z,97814.13
2019-02-28T05:15:11.412Z,97818.12
2019-02-28T05:17:43.381Z,97809.17
2019-02-28T05:20:15.684Z,97810.74
2019-02-28T05:22:47.614Z,97809.16
2019-02-28T05:25:19.650Z,97811.19
2019-02-28T05:27:51.574Z,97808.02
2019-02-28T05:30:23.517Z,97809.97
2019-02-28T05:32:55.446Z,97808.48
2019-02-28T05:35:27.468Z,97811.44
2019-02-28T05:37:59.406Z,97814.91
2019-02-28T05:40:31.332Z,97820.61
2019-02-28T05:43:03.273Z,97822.55
2019-02-28T05:45:35.307Z,97823.11
2019-02-28T05:48:07.250Z,97821.34
2019-02-28T05:50:39.297Z,97824.52
2019-02-28T05:53:11.192Z,97824.17
2019-02-28T05:55:43.122Z,97831.92
2019-02-28T05:58:17.648Z,97831.85
2019-02-28T06:00:48.693Z,97831.19
2019-02-28T06:03:20.627Z,97828.50
2019-02-28T06:05:52.570Z,97830.61
2019-02-28T06:08:24.498Z,97827.34
2019-02-28T06:11:00.632Z,97827.38
2019-02-28T06:13:30.066Z,97822.98
2019-02-28T06:16:02.052Z,97822.93
2019-02-28T06:18:33.992Z,97825.52
2019-02-28T06:21:05.927Z,97827.19
2019-02-28T06:23:40.711Z,97828.18
2019-02-28T06:26:11.514Z,97829.48
2019-02-28T06:28:43.433Z,97839.41
2019-02-28T06:31:15.369Z,97825.17
2019-02-28T06:33:47.541Z,97826.88
2019-02-28T06:36:19.501Z,97825.39
2019-02-28T06:38:54.444Z,97828.27
2019-02-28T06:41:25.052Z,97828.14
2019-02-28T06:43:56.985Z,97827.14
2019-02-28T06:46:28.923Z,97828.43
2019-02-28T06:49:05.978Z,97834.14
2019-02-28T06:51:34.495Z,97838.84
2019-02-28T06:54:07.994Z,97838.24
2019-02-28T06:56:40.158Z,97841.54
2019-02-28T06:59:12.098Z,97840.80
2019-02-28T07:01:45.026Z,97841.61
2019-02-28T07:04:16.969Z,97844.95
2019-02-28T07:06:48.921Z,97852.41
2019-02-28T07:09:20.856Z,97846.66
2019-02-28T07:11:54.892Z,97841.38
2019-02-28T07:14:26.433Z,97844.07
2019-02-28T07:16:58.406Z,97834.50
2019-02-28T07:19:30.330Z,97837.27
2019-02-28T07:22:02.272Z,97834.57
2019-02-28T07:24:37.273Z,97832.52
2019-02-28T07:27:08.102Z,97834.93
2019-02-28T07:29:42.652Z,97833.36
2019-02-28T07:32:13.664Z,97834.20
2019-02-28T07:34:45.606Z,97832.73
2019-02-28T07:37:19.002Z,97827.88
2019-02-28T07:39:51.182Z,97815.97
2019-02-28T07:42:23.230Z,97810.70
2019-02-28T07:44:57.872Z,97805.27
2019-02-28T07:47:29.095Z,97812.69
2019-02-28T07:50:01.111Z,97813.86
2019-02-28T07:52:33.773Z,97816.44
2019-02-28T07:55:06.858Z,97815.47
2019-02-28T07:57:38.798Z,97816.28
2019-02-28T08:00:18.216Z,97807.83
2019-02-28T08:02:49.730Z,97801.75
2019-02-28T08:05:21.907Z,97802.55
2019-02-28T08:07:53.991Z,97796.91
2019-02-28T08:10:26.012Z,97804.75
2019-02-28T08:12:58.132Z,97800.20
2019-02-28T08:15:30.300Z,97800.50
2019-02-28T08:18:02.470Z,97794.61
2019-02-28T08:20:34.881Z,97789.13
2019-02-28T08:23:07.030Z,97792.11
2019-02-28T08:25:39.621Z,97792.88
2019-02-28T08:28:12.824Z,97787.22
2019-02-28T08:30:44.857Z,97787.76
2019-02-28T08:33:17.185Z,97776.80
2019-02-28T08:35:49.288Z,97776.27
2019-02-28T08:38:21.308Z,97775.41
2019-02-28T08:40:53.340Z,97774.70
2019-02-28T08:43:27.410Z,97776.27
2019-02-28T08:45:59.186Z,97767.66
2019-02-28T08:48:32.413Z,97750.41
2019-02-28T08:51:04.891Z,97734.58
2019-02-28T08:53:37.077Z,97727.45
2019-02-28T08:56:11.013Z,97712.91
2019-02-28T08:58:42.883Z,97713.34
2019-02-28T09:01:14.888Z,97706.53
2019-02-28T09:03:46.993Z,97707.47
2019-02-28T09:06:19.074Z,97715.23
2019-02-28T09:08:51.102Z,97716.02
2019-02-28T09:11:23.200Z,97713.34
2019-02-28T09:13:55.214Z,97704.30
2019-02-28T09:16:27.695Z,97698.24
2019-02-28T09:19:00.884Z,97701.58
2019-02-28T09:21:33.756Z,97695.62
2019-02-28T09:24:06.093Z,97690.13
2019-02-28T09:26:38.193Z,97681.64
2019-02-28T09:29:10.322Z,97678.04
2019-02-28T09:31:42.412Z,97683.71
2019-02-28T09:34:14.428Z,97683.84
2019-02-28T09:36:46.444Z,97684.73
2019-02-28T09:39:19.417Z,97691.34
2019-02-28T09:41:52.282Z,97688.77
2019-02-28T09:44:24.316Z,97680.78
2019-02-28T09:46:56.413Z,97674.73
2019-02-28T09:49:28.628Z,97662.84
2019-02-28T09:52:03.148Z,97666.28
2019-02-28T09:54:34.424Z,97660.57
2019-02-28T09:57:06.578Z,97659.69
2019-02-28T09:59:38.744Z,97658.59
2019-02-28T10:02:10.850Z,97653.34
2019-02-28T10:04:42.947Z,97647.91
2019-02-28T10:07:15.067Z,97646.17
2019-02-28T10:09:49.248Z,97644.02
2019-02-28T10:12:20.884Z,97654.36
2019-02-28T10:14:52.909Z,97656.02
2019-02-28T10:17:28.607Z,97651.91
2019-02-28T10:19:58.966Z,97646.02
2019-02-28T10:22:31.023Z,97636.53
2019-02-28T10:25:03.548Z,97637.14
2019-02-28T10:27:37.046Z,97634.53
2019-02-28T10:30:15.529Z,97641.04
2019-02-28T10:32:46.055Z,97644.34
2019-02-28T10:35:18.591Z,97639.52
2019-02-28T10:37:50.876Z,97639.39
2019-02-28T10:40:24.780Z,97643.13
2019-02-28T10:42:57.011Z,97643.16
2019-02-28T10:45:29.356Z,97642.84
2019-02-28T10:48:03.879Z,97652.79
2019-02-28T10:50:35.424Z,97650.56
2019-02-28T10:53:07.658Z,97648.28
2019-02-28T10:55:39.960Z,97650.23
2019-02-28T10:58:12.459Z,97650.19
2019-02-28T11:00:46.310Z,97649.85
2019-02-28T11:03:19.033Z,97646.44
2019-02-28T11:05:54.236Z,97644.41
2019-02-28T11:08:24.885Z,97635.38
2019-02-28T11:10:56.986Z,97632.19
2019-02-28T11:13:32.194Z,97611.91
2019-02-28T11:16:02.915Z,97602.34
2019-02-28T11:18:36.464Z,97612.33
2019-02-28T11:21:09.072Z,97617.23
2019-02-28T11:23:41.201Z,97607.94
2019-02-28T11:26:13.311Z,97618.94
2019-02-28T11:28:45.492Z,97623.09
2019-02-28T11:31:19.209Z,97620.70
2019-02-28T11:33:52.019Z,97612.26
2019-02-28T11:36:24.421Z,97618.46
2019-02-28T11:38:56.512Z,97617.88
2019-02-28T11:41:28.709Z,97610.68
2019-02-28T11:44:00.834Z,97612.05
2019-02-28T11:46:35.752Z,97605.90
2019-02-28T11:49:06.783Z,97609.41
2019-02-28T11:51:38.887Z,97600.69
2019-02-28T11:54:12.293Z,97609.95
2019-02-28T11:56:44.902Z,97596.54
2019-02-28T11:59:17.000Z,97599.47
2019-02-28T12:01:49.097Z,97584.67
2019-02-28T12:04:21.192Z,97585.09
2019-02-28T12:06:53.317Z,97577.55
2019-02-28T12:09:25.407Z,97571.28
2019-02-28T12:11:57.431Z,97573.07
2019-02-28T12:14:30.142Z,97569.19
2019-02-28T12:17:02.266Z,97563.41
2019-02-28T12:19:34.353Z,97562.08
2019-02-28T12:22:09.127Z,97571.19
2019-02-28T12:24:40.742Z,97568.55
2019-02-28T12:27:12.828Z,97563.34
2019-02-28T12:29:45.572Z,97563.57
2019-02-28T12:32:18.586Z,97553.30
2019-02-28T12:34:50.679Z,97554.22
2019-02-28T12:37:23.130Z,97547.10
2019-02-28T12:39:55.233Z,97550.52
2019-02-28T12:42:27.257Z,97538.97
2019-02-28T12:44:59.361Z,97537.07
2019-02-28T12:47:34.488Z,97535.02
2019-02-28T12:50:07.839Z,97532.19
2019-02-28T12:52:39.883Z,97538.14
2019-02-28T12:55:14.699Z,97523.02
2019-02-28T12:57:46.993Z,97537.16
2019-02-28T13:00:25.399Z,97547.70
2019-02-28T13:02:57.494Z,97525.04
2019-02-28T13:05:29.895Z,97524.00
2019-02-28T13:08:02.098Z,97516.89
2019-02-28T13:10:34.189Z,97517.31
2019-02-28T13:13:07.778Z,97516.29
2019-02-28T13:15:40.118Z,97516.92
2019-02-28T13:18:12.345Z,97516.77
2019-02-28T13:20:44.593Z,97512.55
2019-02-28T13:23:17.231Z,97512.59
2019-02-28T13:25:49.727Z,97512.11
2019-02-28T13:28:23.577Z,97511.41
2019-02-28T13:30:55.461Z,97503.06
2019-02-28T13:33:27.670Z,97514.79
2019-02-28T13:35:59.687Z,97505.04
2019-02-28T13:38:31.771Z,97493.22
2019-02-28T13:41:03.899Z,97511.42
2019-02-28T13:43:36.101Z,97512.45
2019-02-28T13:46:08.123Z,97520.86
2019-02-28T13:48:40.220Z,97514.95
2019-02-28T13:51:12.248Z,97521.48
2019-02-28T13:53:44.362Z,97518.51
2019-02-28T13:56:18.012Z,97517.94
2019-02-28T13:58:53.819Z,97522.91
2019-02-28T14:01:24.068Z,97520.12
2019-02-28T14:03:56.167Z,97519.98
2019-02-28T14:06:28.260Z,97520.16
2019-02-28T14:09:00.363Z,97518.27
2019-02-28T14:11:32.936Z,97518.22
2019-02-28T14:14:06.255Z,97522.39
2019-02-28T14:16:39.003Z,97521.75
2019-02-28T14:19:11.127Z,97528.58
2019-02-28T14:21:43.322Z,97525.44
2019-02-28T14:24:15.424Z,97524.98
2019-02-28T14:26:49.583Z,97521.50
2019-02-28T14:29:21.349Z,97517.38
2019-02-28T14:31:53.445Z,97507.52
2019-02-28T14:34:26.963Z,97501.81
2019-02-28T14:36:59.243Z,97502.03
2019-02-28T14:39:31.277Z,97492.23
2019-02-28T14:42:06.742Z,97499.67
2019-02-28T14:44:38.034Z,97499.48
2019-02-28T14:47:10.055Z,97497.62
2019-02-28T14:49:43.840Z,97495.30
2019-02-28T14:52:15.816Z,97491.27
2019-02-28T14:54:47.908Z,97491.56
2019-02-28T14:57:19.928Z,97495.23
2019-02-28T14:59:52.071Z,97485.44
2019-02-28T15:02:27.869Z,97498.99
2019-02-28T15:04:57.912Z,97494.48
2019-02-28T15:07:29.961Z,97498.79
2019-02-28T15:10:02.732Z,97491.05
2019-02-28T15:12:34.982Z,97494.37
2019-02-28T15:15:10.126Z,97495.98
2019-02-28T15:17:42.238Z,97502.11
2019-02-28T15:20:14.698Z,97493.94
2019-02-28T15:22:46.895Z,97496.34
2019-02-28T15:25:19.960Z,97492.70
2019-02-28T15:27:52.206Z,97498.41
2019-02-28T15:30:30.527Z,97496.66
2019-02-28T15:33:01.617Z,97491.83
2019-02-28T15:35:33.723Z,97488.63
2019-02-28T15:38:09.119Z,97499.00
2019-02-28T15:40:40.653Z,97490.88
2019-02-28T15:43:17.110Z,97491.09
2019-02-28T15:45:46.649Z,97479.31
2019-02-28T15:48:18.755Z,97474.36
2019-02-28T15:50:51.803Z,97472.32
2019-02-28T15:53:24.787Z,97470.23
2019-02-28T15:55:56.987Z,97464.58
2019-02-28T15:58:29.126Z,97459.09
2019-02-28T16:01:01.230Z,97457.28
2019-02-28T16:03:33.325Z,97457.63
2019-02-28T16:06:05.455Z,97448.92
2019-02-28T16:08:37.487Z,97463.15
2019-02-28T16:11:09.689Z,97454.34
2019-02-28T16:13:41.709Z,97458.92
2019-02-28T16:16:13.860Z,97458.39
2019-02-28T16:18:47.328Z,97462.73
2019-02-28T16:21:19.978Z,97455.97
2019-02-28T16:23:52.112Z,97450.31
2019-02-28T16:26:24.224Z,97457.28
2019-02-28T16:28:56.312Z,97452.09
2019-02-28T16:31:28.507Z,97454.84
2019-02-28T16:34:08.230Z,97451.41
2019-02-28T16:36:34.322Z,97457.88
2019-02-28T16:39:08.529Z,97462.56
2019-02-28T16:41:40.624Z,97464.31
2019-02-28T16:44:12.641Z,97467.84
2019-02-28T16:46:46.419Z,97475.58
2019-02-28T16:49:18.388Z,97476.99
2019-02-28T16:51:50.504Z,97481.34
2019-02-28T16:54:23.387Z,97483.71
2019-02-28T16:56:56.219Z,97480.91
2019-02-28T16:59:31.386Z,97485.73
2019-02-28T17:02:02.077Z,97488.60
2019-02-28T17:04:34.178Z,97489.55
2019-02-28T17:07:09.188Z,97492.78
2019-02-28T17:09:44.102Z,97492.28
2019-02-28T17:12:37.937Z,97491.45
2019-02-28T17:15:19.666Z,97495.49
2019-02-28T17:17:57.297Z,97491.09
2019-02-28T17:20:29.296Z,97496.91
2019-02-28T17:23:02.157Z,97502.73
2019-02-28T17:25:34.215Z,97503.20
2019-02-28T17:28:25.141Z,97501.75
2019-02-28T17:31:14.367Z,97503.84
2019-02-28T17:33:48.015Z,97506.56
2019-02-28T17:36:20.631Z,97508.31
2019-02-28T17:38:52.883Z,97506.86
2019-02-28T17:41:24.890Z,97505.23
2019-02-28T17:45:03.976Z,97508.94
2019-02-28T17:48:30.297Z,97511.02
2019-02-28T17:51:43.132Z,97507.41
2019-02-28T17:55:09.306Z,97508.69
2019-02-28T17:58:14.853Z,97515.23
2019-02-28T18:01:39.432Z,97509.37
2019-02-28T18:05:00.327Z,97507.38
2019-02-28T18:08:19.768Z,97510.27
2019-02-28T18:12:10.776Z,97509.94
2019-02-28T18:15:26.478Z,97511.01
2019-02-28T18:19:01.658Z,97512.27
2019-02-28T18:22:22.857Z,97516.41
2019-02-28T18:25:48.696Z,97517.06
2019-02-28T18:29:18.976Z,97513.02
2019-02-28T18:31:53.870Z,97515.13
2019-02-28T18:34:28.364Z,97521.78
2019-02-28T18:37:00.592Z,97521.63
2019-02-28T18:39:32.763Z,97518.84
2019-02-28T18:42:04.863Z,97515.17
2019-02-28T18:44:37.494Z,97515.17
2019-02-28T18:47:10.668Z,97516.16
2019-02-28T18:49:42.706Z,97512.94
2019-02-28T18:52:14.782Z,97521.64
2019-02-28T18:54:46.811Z,97520.14
2019-02-28T18:57:18.873Z,97520.12
2019-02-28T18:59:50.980Z,97522.94
2019-02-28T19:02:23.047Z,97525.16
2019-02-28T19:04:55.075Z,97528.80
2019-02-28T19:07:27.152Z,97523.41
2019-02-28T19:10:00.468Z,97525.60
2019-02-28T19:12:32.501Z,97528.42
2019-02-28T19:15:12.192Z,97530.63
2019-02-28T19:17:44.341Z,97540.56
2019-02-28T19:20:16.398Z,97545.34
2019-02-28T19:22:48.487Z,97542.39
2019-02-28T19:25:20.610Z,97551.87
2019-02-28T19:27:52.721Z,97564.60
2019-02-28T19:30:24.842Z,97571.76
2019-02-28T19:32:57.716Z,97593.13
2019-02-28T19:35:29.784Z,97596.45
2019-02-28T19:38:01.870Z,97590.44
2019-02-28T19:40:33.968Z,97599.52
2019-02-28T19:43:06.061Z,97601.38
2019-02-28T19:45:39.066Z,97610.13
2019-02-28T19:48:11.131Z,97612.89
2019-02-28T19:50:43.236Z,97611.98
2019-02-28T19:53:15.253Z,97640.13
2019-02-28T19:55:47.506Z,97639.31
2019-02-28T19:58:19.573Z,97647.92
2019-02-28T20:00:52.085Z,97653.94
2019-02-28T20:03:24.192Z,97653.16
2019-02-28T20:05:56.309Z,97652.44
2019-02-28T20:08:28.400Z,97656.17
2019-02-28T20:11:00.608Z,97667.14
2019-02-28T20:13:32.630Z,97663.73
2019-02-28T20:16:04.976Z,97677.95
2019-02-28T20:18:37.216Z,97669.33
2019-02-28T20:21:09.666Z,97663.02
2019-02-28T20:23:41.758Z,97671.75
2019-02-28T20:26:13.790Z,97665.08
2019-02-28T20:28:45.808Z,97677.99
2019-02-28T20:31:18.028Z,97666.85
2019-02-28T20:33:50.045Z,97672.57
2019-02-28T20:36:22.077Z,97673.63
2019-02-28T20:38:54.344Z,97671.98
2019-02-28T20:41:26.424Z,97668.51
2019-02-28T20:43:58.516Z,97678.24
2019-02-28T20:46:30.587Z,97679.77
2019-02-28T20:49:02.622Z,97682.23
2019-02-28T20:51:34.657Z,97682.89
2019-02-28T20:54:07.101Z,97688.09
2019-02-28T20:56:39.201Z,97692.56
2019-02-28T20:59:11.219Z,97693.94
2019-02-28T21:01:43.257Z,97685.38
2019-02-28T21:04:15.350Z,97690.52
2019-02-28T21:06:47.459Z,97686.83
2019-02-28T21:09:20.062Z,97684.66
2019-02-28T21:11:52.172Z,97684.86
2019-02-28T21:14:24.267Z,97686.47
2019-02-28T21:16:56.332Z,97686.07
2019-02-28T21:19:28.429Z,97680.78
2019-02-28T21:22:02.559Z,97680.73
2019-02-28T21:24:34.576Z,97676.93
2019-02-28T21:27:06.780Z,97677.77
2019-02-28T21:29:38.872Z,97677.77
2019-02-28T21:32:10.887Z,97682.92
2019-02-28T21:34:42.962Z,97678.06
2019-02-28T21:37:15.015Z,97684.17
2019-02-28T21:39:47.311Z,97688.31
2019-02-28T21:42:19.403Z,97684.61
2019-02-28T21:44:51.623Z,97688.34
2019-02-28T21:47:24.349Z,97689.48
2019-02-28T21:49:56.455Z,97685.16
2019-02-28T21:52:28.498Z,97693.28
2019-02-28T21:55:00.603Z,97690.27
2019-02-28T21:57:32.690Z,97691.28
2019-02-28T22:00:05.976Z,97685.70
2019-02-28T22:02:38.093Z,97683.84
2019-02-28T22:05:12.480Z,97678.83
2019-02-28T22:07:44.727Z,97673.73
2019-02-28T22:10:17.321Z,97674.30
2019-02-28T22:12:49.420Z,97679.44
2019-02-28T22:15:21.803Z,97672.97
2019-02-28T22:17:53.896Z,97676.82
2019-02-28T22:20:26.105Z,97671.64
2019-02-28T22:22:58.221Z,97678.15
2019-02-28T22:25:30.307Z,97678.39
2019-02-28T22:28:02.402Z,97682.13
2019-02-28T22:30:56.265Z,97674.61
2019-02-28T22:33:55.998Z,97667.63
2019-02-28T22:36:31.510Z,97659.43
2019-02-28T22:39:04.126Z,97666.98
2019-02-28T22:41:36.112Z,97669.23
2019-02-28T22:44:09.448Z,97669.11
2019-02-28T22:46:41.431Z,97666.02
2019-02-28T22:49:13.527Z,97661.44
2019-02-28T22:51:45.514Z,97662.52
2019-02-28T22:54:17.484Z,97665.53
2019-02-28T22:56:49.376Z,97663.28
2019-02-28T22:59:21.308Z,97652.52
2019-02-28T23:01:54.275Z,97663.95
2019-02-28T23:04:26.582Z,97660.98
2019-02-28T23:06:58.475Z,97658.16
2019-02-28T23:09:30.403Z,97661.02
2019-02-28T23:12:02.411Z,97661.47
2019-02-28T23:14:34.419Z,97658.94
2019-02-28T23:17:06.406Z,97648.80
2019-02-28T23:19:38.351Z,97647.17
2019-02-28T23:22:10.251Z,97641.23
2019-02-28T23:24:42.178Z,97642.73
2019-02-28T23:27:20.710Z,97638.58
2019-02-28T23:30:35.636Z,97637.52
2019-02-28T23:33:18.330Z,97642.48
2019-02-28T23:35:51.270Z,97641.42
2019-02-28T23:38:23.163Z,97634.94
2019-02-28T23:40:58.166Z,97632.78
2019-02-28T23:43:30.066Z,97631.42
2019-02-28T23:46:02.115Z,97627.38
2019-02-28T23:48:34.075Z,97622.36
2019-02-28T23:51:06.104Z,97626.30
2019-02-28T23:53:38.116Z,97622.16
2019-02-28T23:56:10.117Z,97619.74
2019-02-28T23:58:42.160Z,97620.22
